sensor_id;sensor_type;location;lat;lon;timestamp;P1;durP1;ratioP1;P2;durP2;ratioP2
49153;SDS011;49455;52.252;9.124;2023-03-01T00:02:10;9.83;;;5.37;;
49153;SDS011;49455;52.252;9.124;2023-03-01T00:07:10;12.37;;;5.83;;
49153;SDS011;49455;52.252;9.124;2023-03-01T00:12:11;10.90;;;6.20;;
49153;SDS011;49455;52.252;9.124;2023-03-01T00:17:11;9.43;;;5.30;;
49153;SDS011;49455;52.252;9.124;2023-03-01T00:22:11;11.00;;;5.73;;
49153;SDS011;49455;52.252;9.124;2023-03-01T00:27:12;9.47;;;4.87;;
49153;SDS011;49455;52.252;9.124;2023-03-01T00:32:12;9.80;;;5.53;;
49153;SDS011;49455;52.252;9.124;2023-03-01T00:37:13;10.23;;;5.67;;
49153;SDS011;49455;52.252;9.124;2023-03-01T00:42:13;9.03;;;5.10;;
49153;SDS011;49455;52.252;9.124;2023-03-01T00:47:14;12.27;;;4.87;;
49153;SDS011;49455;52.252;9.124;2023-03-01T00:52:14;9.57;;;5.03;;
49153;SDS011;49455;52.252;9.124;2023-03-01T00:57:14;7.47;;;4.60;;
49153;SDS011;49455;52.252;9.124;2023-03-01T01:02:15;8.67;;;4.70;;
49153;SDS011;49455;52.252;9.124;2023-03-01T01:07:15;9.93;;;5.23;;
49153;SDS011;49455;52.252;9.124;2023-03-01T01:12:16;11.33;;;5.80;;
49153;SDS011;49455;52.252;9.124;2023-03-01T01:17:16;10.60;;;5.20;;
49153;SDS011;49455;52.252;9.124;2023-03-01T01:22:16;10.13;;;4.83;;
49153;SDS011;49455;52.252;9.124;2023-03-01T01:27:17;8.17;;;4.97;;
49153;SDS011;49455;52.252;9.124;2023-03-01T01:32:17;10.10;;;5.33;;
49153;SDS011;49455;52.252;9.124;2023-03-01T01:37:18;9.73;;;5.33;;
49153;SDS011;49455;52.252;9.124;2023-03-01T01:42:19;8.32;;;5.50;;
49153;SDS011;49455;52.252;9.124;2023-03-01T01:47:20;9.60;;;5.40;;
49153;SDS011;49455;52.252;9.124;2023-03-01T01:52:23;14.75;;;5.43;;
49153;SDS011;49455;52.252;9.124;2023-03-01T01:57:32;10.15;;;5.68;;
49153;SDS011;49455;52.252;9.124;2023-03-01T02:02:36;8.95;;;4.85;;
49153;SDS011;49455;52.252;9.124;2023-03-01T02:07:38;9.93;;;5.40;;
49153;SDS011;49455;52.252;9.124;2023-03-01T02:12:39;9.00;;;5.75;;
49153;SDS011;49455;52.252;9.124;2023-03-01T02:17:40;15.80;;;5.90;;
49153;SDS011;49455;52.252;9.124;2023-03-01T02:33:19;12.35;;;7.07;;
49153;SDS011;49455;52.252;9.124;2023-03-01T02:38:19;14.10;;;7.73;;
49153;SDS011;49455;52.252;9.124;2023-03-01T02:43:21;14.98;;;8.50;;
49153;SDS011;49455;52.252;9.124;2023-03-01T02:48:26;16.42;;;8.15;;
49153;SDS011;49455;52.252;9.124;2023-03-01T02:53:29;12.75;;;7.72;;
49153;SDS011;49455;52.252;9.124;2023-03-01T02:58:33;13.18;;;7.40;;
49153;SDS011;49455;52.252;9.124;2023-03-01T03:03:34;15.20;;;8.97;;
49153;SDS011;49455;52.252;9.124;2023-03-01T03:08:34;20.00;;;10.37;;
49153;SDS011;49455;52.252;9.124;2023-03-01T03:13:35;13.87;;;8.07;;
49153;SDS011;49455;52.252;9.124;2023-03-01T03:18:35;16.03;;;9.47;;
49153;SDS011;49455;52.252;9.124;2023-03-01T03:23:36;18.53;;;10.43;;
49153;SDS011;49455;52.252;9.124;2023-03-01T03:28:36;19.80;;;12.03;;
49153;SDS011;49455;52.252;9.124;2023-03-01T03:33:36;19.50;;;12.60;;
49153;SDS011;49455;52.252;9.124;2023-03-01T03:38:37;20.53;;;11.07;;
49153;SDS011;49455;52.252;9.124;2023-03-01T03:43:39;22.30;;;11.48;;
49153;SDS011;49455;52.252;9.124;2023-03-01T03:48:41;22.30;;;11.80;;
49153;SDS011;49455;52.252;9.124;2023-03-01T03:53:43;20.67;;;11.40;;
49153;SDS011;49455;52.252;9.124;2023-03-01T03:58:44;22.35;;;11.52;;
49153;SDS011;49455;52.252;9.124;2023-03-01T04:03:44;19.53;;;10.70;;
49153;SDS011;49455;52.252;9.124;2023-03-01T04:08:45;18.17;;;10.83;;
49153;SDS011;49455;52.252;9.124;2023-03-01T04:13:45;22.77;;;10.73;;
49153;SDS011;49455;52.252;9.124;2023-03-01T04:18:47;25.00;;;10.73;;
49153;SDS011;49455;52.252;9.124;2023-03-01T04:23:47;17.02;;;9.48;;
49153;SDS011;49455;52.252;9.124;2023-03-01T04:28:47;19.43;;;10.70;;
49153;SDS011;49455;52.252;9.124;2023-03-01T04:33:49;16.37;;;10.17;;
49153;SDS011;49455;52.252;9.124;2023-03-01T04:38:51;17.08;;;9.43;;
49153;SDS011;49455;52.252;9.124;2023-03-01T04:43:52;17.27;;;8.60;;
49153;SDS011;49455;52.252;9.124;2023-03-01T04:48:52;11.80;;;7.17;;
49153;SDS011;49455;52.252;9.124;2023-03-01T04:53:52;12.90;;;6.13;;
49153;SDS011;49455;52.252;9.124;2023-03-01T04:58:53;15.90;;;6.60;;
49153;SDS011;49455;52.252;9.124;2023-03-01T05:03:54;15.13;;;6.73;;
49153;SDS011;49455;52.252;9.124;2023-03-01T05:08:54;13.60;;;7.70;;
49153;SDS011;49455;52.252;9.124;2023-03-01T05:13:54;15.70;;;7.90;;
49153;SDS011;49455;52.252;9.124;2023-03-01T05:18:55;14.73;;;8.30;;
49153;SDS011;49455;52.252;9.124;2023-03-01T05:23:55;14.03;;;6.33;;
49153;SDS011;49455;52.252;9.124;2023-03-01T05:28:55;11.27;;;5.97;;
49153;SDS011;49455;52.252;9.124;2023-03-01T05:33:56;11.10;;;5.30;;
49153;SDS011;49455;52.252;9.124;2023-03-01T05:38:56;9.73;;;5.07;;
49153;SDS011;49455;52.252;9.124;2023-03-01T05:43:57;14.53;;;6.07;;
49153;SDS011;49455;52.252;9.124;2023-03-01T05:48:57;14.37;;;6.90;;
49153;SDS011;49455;52.252;9.124;2023-03-01T05:53:57;11.90;;;6.00;;
49153;SDS011;49455;52.252;9.124;2023-03-01T05:58:58;12.10;;;6.00;;
49153;SDS011;49455;52.252;9.124;2023-03-01T06:03:58;14.57;;;7.80;;
49153;SDS011;49455;52.252;9.124;2023-03-01T06:08:58;14.40;;;6.60;;
49153;SDS011;49455;52.252;9.124;2023-03-01T06:13:59;17.70;;;9.00;;
49153;SDS011;49455;52.252;9.124;2023-03-01T06:18:59;28.20;;;11.00;;
49153;SDS011;49455;52.252;9.124;2023-03-01T06:24:00;21.47;;;11.00;;
49153;SDS011;49455;52.252;9.124;2023-03-01T06:29:00;24.90;;;11.67;;
49153;SDS011;49455;52.252;9.124;2023-03-01T06:34:00;23.07;;;11.23;;
49153;SDS011;49455;52.252;9.124;2023-03-01T06:39:01;29.65;;;14.35;;
49153;SDS011;49455;52.252;9.124;2023-03-01T06:44:02;21.10;;;11.20;;
49153;SDS011;49455;52.252;9.124;2023-03-01T06:49:02;20.10;;;11.37;;
49153;SDS011;49455;52.252;9.124;2023-03-01T06:54:03;18.73;;;8.47;;
49153;SDS011;49455;52.252;9.124;2023-03-01T06:59:04;15.48;;;8.73;;
49153;SDS011;49455;52.252;9.124;2023-03-01T07:04:05;19.70;;;9.87;;
49153;SDS011;49455;52.252;9.124;2023-03-01T07:09:05;18.53;;;8.77;;
49153;SDS011;49455;52.252;9.124;2023-03-01T07:14:06;17.07;;;9.23;;
49153;SDS011;49455;52.252;9.124;2023-03-01T07:19:06;19.90;;;8.53;;
49153;SDS011;49455;52.252;9.124;2023-03-01T07:24:07;17.50;;;10.07;;
49153;SDS011;49455;52.252;9.124;2023-03-01T07:29:09;18.05;;;9.55;;
49153;SDS011;49455;52.252;9.124;2023-03-01T07:34:10;19.70;;;9.63;;
49153;SDS011;49455;52.252;9.124;2023-03-01T07:39:10;21.83;;;9.87;;
49153;SDS011;49455;52.252;9.124;2023-03-01T07:44:11;16.45;;;9.50;;
49153;SDS011;49455;52.252;9.124;2023-03-01T07:49:11;18.50;;;9.47;;
49153;SDS011;49455;52.252;9.124;2023-03-01T07:54:12;18.97;;;9.80;;
49153;SDS011;49455;52.252;9.124;2023-03-01T07:59:12;15.13;;;9.00;;
49153;SDS011;49455;52.252;9.124;2023-03-01T08:04:13;19.07;;;9.50;;
49153;SDS011;49455;52.252;9.124;2023-03-01T08:09:13;17.33;;;10.07;;
49153;SDS011;49455;52.252;9.124;2023-03-01T08:14:14;14.03;;;8.80;;
49153;SDS011;49455;52.252;9.124;2023-03-01T08:19:14;16.60;;;9.37;;
49153;SDS011;49455;52.252;9.124;2023-03-01T08:24:14;18.23;;;9.67;;
49153;SDS011;49455;52.252;9.124;2023-03-01T08:29:15;20.37;;;10.77;;
49153;SDS011;49455;52.252;9.124;2023-03-01T08:34:16;22.37;;;11.20;;
49153;SDS011;49455;52.252;9.124;2023-03-01T08:39:17;20.15;;;11.77;;
49153;SDS011;49455;52.252;9.124;2023-03-01T08:44:19;23.52;;;12.13;;
49153;SDS011;49455;52.252;9.124;2023-03-01T08:49:19;24.63;;;12.80;;
49153;SDS011;49455;52.252;9.124;2023-03-01T08:54:20;26.70;;;12.63;;
49153;SDS011;49455;52.252;9.124;2023-03-01T09:04:22;24.90;;;13.30;;
49153;SDS011;49455;52.252;9.124;2023-03-01T09:09:22;23.27;;;12.77;;
49153;SDS011;49455;52.252;9.124;2023-03-01T09:14:23;27.67;;;14.87;;
49153;SDS011;49455;52.252;9.124;2023-03-01T09:19:23;30.63;;;16.20;;
49153;SDS011;49455;52.252;9.124;2023-03-01T09:24:24;23.50;;;15.03;;
49153;SDS011;49455;52.252;9.124;2023-03-01T09:29:24;24.67;;;14.65;;
49153;SDS011;49455;52.252;9.124;2023-03-01T09:34:25;24.53;;;13.27;;
49153;SDS011;49455;52.252;9.124;2023-03-01T09:39:26;23.05;;;14.13;;
49153;SDS011;49455;52.252;9.124;2023-03-01T09:49:31;25.10;;;14.63;;
49153;SDS011;49455;52.252;9.124;2023-03-01T09:54:35;25.98;;;14.68;;
49153;SDS011;49455;52.252;9.124;2023-03-01T10:05:14;28.05;;;13.98;;
49153;SDS011;49455;52.252;9.124;2023-03-01T10:15:35;25.95;;;13.45;;
49153;SDS011;49455;52.252;9.124;2023-03-01T10:31:10;12.95;;;6.68;;
49153;SDS011;49455;52.252;9.124;2023-03-01T10:36:13;12.40;;;6.85;;
49153;SDS011;49455;52.252;9.124;2023-03-01T10:41:14;12.70;;;6.97;;
49153;SDS011;49455;52.252;9.124;2023-03-01T10:46:24;14.07;;;7.07;;
49153;SDS011;49455;52.252;9.124;2023-03-01T10:51:30;13.25;;;6.70;;
49153;SDS011;49455;52.252;9.124;2023-03-01T10:56:30;11.10;;;6.50;;
49153;SDS011;49455;52.252;9.124;2023-03-01T11:01:46;17.50;;;7.00;;
49153;SDS011;49455;52.252;9.124;2023-03-01T11:07:20;14.20;;;6.43;;
49153;SDS011;49455;52.252;9.124;2023-03-01T11:12:21;12.53;;;6.73;;
49153;SDS011;49455;52.252;9.124;2023-03-01T11:17:23;9.93;;;5.73;;
49153;SDS011;49455;52.252;9.124;2023-03-01T11:22:29;9.95;;;5.60;;
49153;SDS011;49455;52.252;9.124;2023-03-01T11:27:31;12.30;;;5.88;;
49153;SDS011;49455;52.252;9.124;2023-03-01T11:32:38;12.00;;;6.15;;
49153;SDS011;49455;52.252;9.124;2023-03-01T11:37:44;9.75;;;5.50;;
49153;SDS011;49455;52.252;9.124;2023-03-01T11:48:54;11.25;;;6.25;;
49153;SDS011;49455;52.252;9.124;2023-03-01T11:53:57;11.48;;;6.60;;
49153;SDS011;49455;52.252;9.124;2023-03-01T12:09:33;11.98;;;7.10;;
49153;SDS011;49455;52.252;9.124;2023-03-01T12:20:15;14.10;;;7.20;;
49153;SDS011;49455;52.252;9.124;2023-03-01T12:25:38;14.50;;;6.97;;
49153;SDS011;49455;52.252;9.124;2023-03-01T12:51:16;10.57;;;6.40;;
49153;SDS011;49455;52.252;9.124;2023-03-01T12:56:21;15.95;;;8.55;;
49153;SDS011;49455;52.252;9.124;2023-03-01T13:23:26;10.02;;;5.85;;
49153;SDS011;49455;52.252;9.124;2023-03-01T13:33:44;14.27;;;5.85;;
49153;SDS011;49455;52.252;9.124;2023-03-01T13:43:47;9.63;;;5.25;;
49153;SDS011;49455;52.252;9.124;2023-03-01T13:48:52;20.25;;;13.90;;
49153;SDS011;49455;52.252;9.124;2023-03-01T13:53:56;14.25;;;10.57;;
49153;SDS011;49455;52.252;9.124;2023-03-01T13:58:58;9.00;;;5.30;;
49153;SDS011;49455;52.252;9.124;2023-03-01T14:04:03;7.43;;;4.82;;
49153;SDS011;49455;52.252;9.124;2023-03-01T14:09:19;12.65;;;5.25;;
49153;SDS011;49455;52.252;9.124;2023-03-01T14:20:00;10.77;;;4.28;;
49153;SDS011;49455;52.252;9.124;2023-03-01T14:25:19;6.53;;;3.95;;
49153;SDS011;49455;52.252;9.124;2023-03-01T14:30:36;6.60;;;4.00;;
49153;SDS011;49455;52.252;9.124;2023-03-01T14:35:40;6.63;;;4.38;;
49153;SDS011;49455;52.252;9.124;2023-03-01T14:40:41;7.97;;;4.50;;
49153;SDS011;49455;52.252;9.124;2023-03-01T14:45:42;7.33;;;4.07;;
49153;SDS011;49455;52.252;9.124;2023-03-01T14:50:48;8.10;;;4.47;;
49153;SDS011;49455;52.252;9.124;2023-03-01T14:55:51;8.52;;;4.47;;
49153;SDS011;49455;52.252;9.124;2023-03-01T15:01:01;48.92;;;19.40;;
49153;SDS011;49455;52.252;9.124;2023-03-01T15:06:04;7.40;;;4.70;;
49153;SDS011;49455;52.252;9.124;2023-03-01T15:16:13;21.50;;;11.57;;
49153;SDS011;49455;52.252;9.124;2023-03-01T15:21:27;6.80;;;4.75;;
49153;SDS011;49455;52.252;9.124;2023-03-01T15:26:34;7.93;;;4.70;;
49153;SDS011;49455;52.252;9.124;2023-03-01T15:31:38;10.38;;;5.07;;
49153;SDS011;49455;52.252;9.124;2023-03-01T15:36:43;9.98;;;5.65;;
49153;SDS011;49455;52.252;9.124;2023-03-01T15:41:48;10.15;;;5.18;;
49153;SDS011;49455;52.252;9.124;2023-03-01T15:46:48;10.70;;;5.45;;
49153;SDS011;49455;52.252;9.124;2023-03-01T15:51:52;8.25;;;5.40;;
49153;SDS011;49455;52.252;9.124;2023-03-01T15:56:54;8.38;;;5.38;;
49153;SDS011;49455;52.252;9.124;2023-03-01T16:01:55;7.68;;;5.18;;
49153;SDS011;49455;52.252;9.124;2023-03-01T16:06:55;7.35;;;5.03;;
49153;SDS011;49455;52.252;9.124;2023-03-01T16:11:56;8.18;;;5.35;;
49153;SDS011;49455;52.252;9.124;2023-03-01T16:16:56;9.55;;;6.25;;
49153;SDS011;49455;52.252;9.124;2023-03-01T16:21:57;12.35;;;7.20;;
49153;SDS011;49455;52.252;9.124;2023-03-01T16:26:57;20.13;;;6.85;;
49153;SDS011;49455;52.252;9.124;2023-03-01T16:32:00;8.00;;;5.35;;
49153;SDS011;49455;52.252;9.124;2023-03-01T16:37:01;8.02;;;5.63;;
49153;SDS011;49455;52.252;9.124;2023-03-01T16:42:02;8.55;;;5.90;;
49153;SDS011;49455;52.252;9.124;2023-03-01T16:47:02;9.35;;;5.93;;
49153;SDS011;49455;52.252;9.124;2023-03-01T16:52:02;10.02;;;5.78;;
49153;SDS011;49455;52.252;9.124;2023-03-01T16:57:03;8.50;;;5.57;;
49153;SDS011;49455;52.252;9.124;2023-03-01T17:02:04;11.75;;;6.32;;
49153;SDS011;49455;52.252;9.124;2023-03-01T17:07:04;13.80;;;6.95;;
49153;SDS011;49455;52.252;9.124;2023-03-01T17:12:05;10.65;;;5.45;;
49153;SDS011;49455;52.252;9.124;2023-03-01T17:17:05;9.03;;;5.40;;
49153;SDS011;49455;52.252;9.124;2023-03-01T17:22:06;8.73;;;4.88;;
49153;SDS011;49455;52.252;9.124;2023-03-01T17:27:07;7.60;;;5.00;;
49153;SDS011;49455;52.252;9.124;2023-03-01T17:32:08;7.80;;;4.40;;
49153;SDS011;49455;52.252;9.124;2023-03-01T17:37:09;9.07;;;5.60;;
49153;SDS011;49455;52.252;9.124;2023-03-01T17:42:09;8.57;;;4.30;;
49153;SDS011;49455;52.252;9.124;2023-03-01T17:47:09;8.20;;;4.78;;
49153;SDS011;49455;52.252;9.124;2023-03-01T17:52:10;10.15;;;5.45;;
49153;SDS011;49455;52.252;9.124;2023-03-01T17:57:10;6.32;;;4.25;;
49153;SDS011;49455;52.252;9.124;2023-03-01T18:02:11;8.43;;;3.80;;
49153;SDS011;49455;52.252;9.124;2023-03-01T18:07:12;9.30;;;3.60;;
49153;SDS011;49455;52.252;9.124;2023-03-01T18:12:12;7.45;;;4.22;;
49153;SDS011;49455;52.252;9.124;2023-03-01T18:17:13;8.50;;;4.13;;
49153;SDS011;49455;52.252;9.124;2023-03-01T18:22:13;7.93;;;4.27;;
49153;SDS011;49455;52.252;9.124;2023-03-01T18:27:14;9.10;;;3.93;;
49153;SDS011;49455;52.252;9.124;2023-03-01T18:32:14;10.13;;;4.05;;
49153;SDS011;49455;52.252;9.124;2023-03-01T18:37:15;6.75;;;4.35;;
49153;SDS011;49455;52.252;9.124;2023-03-01T18:42:15;7.13;;;3.97;;
49153;SDS011;49455;52.252;9.124;2023-03-01T18:47:16;8.10;;;4.10;;
49153;SDS011;49455;52.252;9.124;2023-03-01T18:52:16;8.33;;;3.73;;
49153;SDS011;49455;52.252;9.124;2023-03-01T18:57:16;14.27;;;9.83;;
49153;SDS011;49455;52.252;9.124;2023-03-01T19:02:17;11.27;;;4.47;;
49153;SDS011;49455;52.252;9.124;2023-03-01T19:07:17;6.80;;;4.03;;
49153;SDS011;49455;52.252;9.124;2023-03-01T19:12:17;10.60;;;4.90;;
49153;SDS011;49455;52.252;9.124;2023-03-01T19:17:20;8.07;;;4.53;;
49153;SDS011;49455;52.252;9.124;2023-03-01T19:22:21;14.68;;;6.47;;
49153;SDS011;49455;52.252;9.124;2023-03-01T19:27:22;14.53;;;6.83;;
49153;SDS011;49455;52.252;9.124;2023-03-01T19:32:23;10.77;;;5.80;;
49153;SDS011;49455;52.252;9.124;2023-03-01T19:37:23;7.57;;;4.57;;
49153;SDS011;49455;52.252;9.124;2023-03-01T19:42:24;8.93;;;5.40;;
49153;SDS011;49455;52.252;9.124;2023-03-01T19:47:24;13.23;;;6.17;;
49153;SDS011;49455;52.252;9.124;2023-03-01T19:52:24;9.00;;;5.20;;
49153;SDS011;49455;52.252;9.124;2023-03-01T19:57:25;6.67;;;4.27;;
49153;SDS011;49455;52.252;9.124;2023-03-01T20:02:25;10.83;;;7.30;;
49153;SDS011;49455;52.252;9.124;2023-03-01T20:07:25;10.60;;;5.60;;
49153;SDS011;49455;52.252;9.124;2023-03-01T20:12:26;11.60;;;5.60;;
49153;SDS011;49455;52.252;9.124;2023-03-01T20:17:26;11.53;;;5.03;;
49153;SDS011;49455;52.252;9.124;2023-03-01T20:22:27;9.53;;;5.50;;
49153;SDS011;49455;52.252;9.124;2023-03-01T20:27:27;8.37;;;4.77;;
49153;SDS011;49455;52.252;9.124;2023-03-01T20:32:29;8.87;;;4.40;;
49153;SDS011;49455;52.252;9.124;2023-03-01T20:42:30;8.73;;;4.40;;
49153;SDS011;49455;52.252;9.124;2023-03-01T20:47:30;11.37;;;5.40;;
49153;SDS011;49455;52.252;9.124;2023-03-01T20:52:31;17.60;;;8.93;;
49153;SDS011;49455;52.252;9.124;2023-03-01T20:57:31;16.77;;;7.50;;
49153;SDS011;49455;52.252;9.124;2023-03-01T21:02:31;11.93;;;6.80;;
49153;SDS011;49455;52.252;9.124;2023-03-01T21:07:32;8.90;;;4.80;;
49153;SDS011;49455;52.252;9.124;2023-03-01T21:12:32;9.23;;;5.47;;
49153;SDS011;49455;52.252;9.124;2023-03-01T21:17:33;9.60;;;5.70;;
49153;SDS011;49455;52.252;9.124;2023-03-01T21:22:33;10.07;;;5.83;;
49153;SDS011;49455;52.252;9.124;2023-03-01T21:27:37;11.37;;;5.87;;
49153;SDS011;49455;52.252;9.124;2023-03-01T21:32:37;10.00;;;6.07;;
49153;SDS011;49455;52.252;9.124;2023-03-01T21:37:38;18.23;;;9.70;;
49153;SDS011;49455;52.252;9.124;2023-03-01T21:42:38;26.20;;;13.77;;
49153;SDS011;49455;52.252;9.124;2023-03-01T21:47:39;13.17;;;7.27;;
49153;SDS011;49455;52.252;9.124;2023-03-01T21:52:39;11.50;;;6.87;;
49153;SDS011;49455;52.252;9.124;2023-03-01T21:57:39;13.10;;;7.03;;
49153;SDS011;49455;52.252;9.124;2023-03-01T22:02:40;12.87;;;7.17;;
49153;SDS011;49455;52.252;9.124;2023-03-01T22:07:40;12.53;;;7.00;;
49153;SDS011;49455;52.252;9.124;2023-03-01T22:12:40;12.80;;;7.33;;
49153;SDS011;49455;52.252;9.124;2023-03-01T22:17:41;14.83;;;8.33;;
49153;SDS011;49455;52.252;9.124;2023-03-01T22:22:41;15.53;;;8.30;;
49153;SDS011;49455;52.252;9.124;2023-03-01T22:27:42;14.93;;;9.13;;
49153;SDS011;49455;52.252;9.124;2023-03-01T22:32:42;17.63;;;8.83;;
49153;SDS011;49455;52.252;9.124;2023-03-01T22:37:42;13.93;;;8.67;;
49153;SDS011;49455;52.252;9.124;2023-03-01T22:42:43;14.13;;;8.33;;
49153;SDS011;49455;52.252;9.124;2023-03-01T22:47:43;14.00;;;6.87;;
49153;SDS011;49455;52.252;9.124;2023-03-01T22:52:43;10.87;;;6.87;;
49153;SDS011;49455;52.252;9.124;2023-03-01T22:57:44;12.30;;;5.47;;
49153;SDS011;49455;52.252;9.124;2023-03-01T23:02:48;11.23;;;5.75;;
49153;SDS011;49455;52.252;9.124;2023-03-01T23:07:49;11.00;;;4.97;;
49153;SDS011;49455;52.252;9.124;2023-03-01T23:12:49;10.90;;;5.40;;
49153;SDS011;49455;52.252;9.124;2023-03-01T23:17:52;10.52;;;5.38;;
49153;SDS011;49455;52.252;9.124;2023-03-01T23:22:52;11.83;;;5.43;;
49153;SDS011;49455;52.252;9.124;2023-03-01T23:27:53;11.03;;;4.97;;
49153;SDS011;49455;52.252;9.124;2023-03-01T23:32:53;11.80;;;4.90;;
49153;SDS011;49455;52.252;9.124;2023-03-01T23:37:54;16.87;;;8.73;;
49153;SDS011;49455;52.252;9.124;2023-03-01T23:42:54;12.87;;;7.60;;
49153;SDS011;49455;52.252;9.124;2023-03-01T23:47:55;15.20;;;8.50;;
49153;SDS011;49455;52.252;9.124;2023-03-01T23:52:55;17.60;;;8.40;;
49153;SDS011;49455;52.252;9.124;2023-03-01T23:57:56;15.23;;;7.67;;
